Date,TemperatureHighF,TemperatureAvgF,TemperatureLowF,DewpointHighF,DewpointAvgF,DewpointLowF,HumidityHigh,HumidityAvg,HumidityLow,PressureMaxIn,PressureMinIn,WindSpeedMaxMPH,WindSpeedAvgMPH,GustSpeedMaxMPH,PrecipitationSumIn
2013-1-1,48,45,43,47,40,30,96,83,58,30.09,29.88,6,2,17,0.26
2013-1-2,47,43,38,46,40,37,97,89,74,30.17,29.90,6,1,13,0.24
2013-1-3,41,37,28,38,35,27,96,91,79,30.25,30.13,4,0,7,0.00
2013-1-4,48,35,26,28,25,22,95,70,40,30.31,30.18,6,2,16,0.00
2013-1-5,48,37,27,35,26,22,83,66,41,30.37,30.21,5,2,13,0.00
2013-1-6,50,43,38,38,36,34,92,78,61,30.21,30.03,6,1,12,0.02
2013-1-7,49,38,30,33,30,27,90,74,51,30.41,30.16,6,1,12,0.00
2013-1-8,54,40,27,42,34,25,95,82,58,30.46,30.36,5,0,6,0.00
2013-1-9,64,49,34,54,44,31,95,82,68,30.43,30.33,7,1,13,0.00
2013-1-10,61,52,44,49,43,36,95,73,46,30.51,30.40,5,2,10,0.00
2013-1-11,48,44,40,46,41,36,97,91,65,30.40,30.14,8,2,11,0.21
2013-1-12,67,56,46,63,54,45,98,94,85,30.14,30.06,6,1,10,0.01
2013-1-13,72,60,51,62,57,50,98,88,68,30.09,30.00,13,2,17,0.00
2013-1-14,63,60,53,62,59,52,97,95,89,30.12,30.03,16,2,19,0.74
2013-1-15,52,43,41,50,42,40,98,97,94,30.21,30.06,12,3,18,0.16
2013-1-16,49,44,39,48,43,39,98,98,98,30.06,29.94,9,1,13,0.23
2013-1-17,49,44,32,49,44,32,98,97,93,30.13,29.88,14,2,27,1.42
2013-1-18,40,33,27,34,30,26,97,89,63,30.52,30.13,5,1,10,0.31
2013-1-19,50,34,25,34,29,24,97,83,53,30.48,30.13,7,2,14,0.28
2013-1-20,57,45,36,38,33,30,86,65,45,30.13,29.97,13,4,19,0.07
2013-1-21,56,43,28,36,28,20,94,60,37,30.06,29.84,13,3,19,0.00
2013-1-22,39,30,23,20,9,2,59,41,25,30.26,29.94,10,3,15,0.00
2013-1-23,40,27,17,20,13,5,79,58,36,30.36,30.03,7,2,16,0.00
2013-1-24,35,30,22,26,14,4,80,54,30,30.50,29.95,14,3,21,0.00
2013-1-25,26,23,19,24,16,6,92,74,51,30.51,30.11,9,2,11,0.02
2013-1-26,36,29,24,33,28,23,96,93,88,30.40,30.08,4,1,8,0.03
2013-1-27,38,30,22,29,25,20,96,82,61,30.59,30.39,9,1,11,0.02
2013-1-28,52,41,30,46,36,27,93,83,60,30.48,30.20,10,3,16,0.04
2013-1-29,70,56,46,56,51,45,100,84,59,30.21,30.02,10,4,18,0.00
2013-1-30,71,65,57,65,61,55,96,88,76,30.02,29.33,21,7,35,0.29
2013-1-31,59,44,32,57,31,22,92,63,40,29.97,29.39,18,6,33,0.08
2013-2-1,39,32,23,29,15,7,77,53,31,30.38,29.83,15,5,25,0.00
2013-2-2,41,31,18,35,16,9,86,54,33,30.39,30.02,11,2,17,0.02
2013-2-3,47,38,31,35,29,23,95,72,48,30.02,29.82,10,3,18,0.01
2013-2-4,47,36,25,28,23,20,87,62,38,30.13,29.98,8,2,13,0.00
2013-2-5,57,44,35,35,32,28,80,64,41,29.99,29.86,11,2,15,0.00
2013-2-6,57,43,31,36,29,26,92,64,31,30.26,29.95,8,2,17,0.00
2013-2-7,44,39,34,40,35,27,96,84,68,30.32,30.01,8,2,13,0.83
2013-2-8,53,43,36,46,38,29,97,84,63,30.03,29.80,12,4,18,0.53
2013-2-9,50,38,27,29,24,19,85,61,31,30.34,30.02,8,2,15,0.00
2013-2-10,51,38,24,38,24,19,90,61,31,30.48,30.19,9,2,14,0.10
2013-2-11,59,53,42,58,52,39,98,96,88,30.18,29.89,11,3,18,0.09
2013-2-12,58,50,42,52,36,27,96,62,32,30.06,29.89,14,3,14,0.00
2013-2-13,48,44,39,45,42,35,97,91,63,29.93,29.60,10,2,14,0.45
2013-2-14,49,39,30,35,32,28,95,78,51,30.05,29.81,9,2,9,0.00
2013-2-15,60,44,31,39,33,28,95,69,31,30.07,29.90,12,2,15,0.00
2013-2-16,42,34,27,34,32,25,95,90,72,29.95,29.82,10,2,17,0.28
2013-2-17,35,27,22,25,18,12,91,69,41,30.27,29.90,15,3,22,0.07
2013-2-18,50,33,16,27,21,14,89,64,34,30.39,30.22,12,2,18,0.08
2013-2-19,47,40,30,46,36,26,96,89,70,30.21,29.84,12,4,23,0.22
2013-2-20,49,39,28,36,21,15,93,52,27,30.12,29.95,10,3,18,0.00
2013-2-21,51,39,27,27,19,16,70,48,26,30.24,30.10,9,3,13,0.00
2013-2-22,40,35,32,34,31,22,96,86,49,30.33,30.13,7,2,13,0.28
2013-2-23,42,38,35,41,37,34,97,96,96,30.12,29.80,4,1,9,0.32
2013-2-24,60,47,36,44,36,26,97,71,34,30.01,29.77,8,2,17,0.04
2013-2-25,41,36,31,29,25,23,77,65,50,30.20,30.02,7,3,17,0.00
2013-2-26,52,41,32,52,38,25,98,89,67,30.14,29.54,14,4,28,0.62
2013-2-27,57,46,40,42,39,36,97,78,47,29.75,29.59,13,4,19,0.00
2013-2-28,48,41,34,40,32,27,96,72,49,29.84,29.67,12,3,17,0.01
2013-3-1,46,39,32,32,28,26,85,66,52,29.90,29.81,8,3,13,0.00
2013-3-2,46,38,30,29,25,20,87,63,46,29.90,29.79,6,2,14,0.00
2013-3-3,46,34,28,23,20,18,72,58,38,29.96,29.83,12,4,18,0.00
2013-3-4,49,35,22,25,18,14,79,54,26,30.10,29.96,11,3,20,0.00
2013-3-5,48,40,33,42,35,26,97,82,45,30.05,29.54,10,2,14,0.40
2013-3-6,48,40,35,41,33,29,97,76,54,30.02,29.51,14,6,28,0.06
2013-3-7,50,40,32,32,29,25,84,66,47,30.22,30.02,13,4,19,0.00
2013-3-8,54,42,31,29,26,24,79,57,33,30.28,30.14,13,4,19,0.00
2013-3-9,60,44,30,33,28,25,82,58,28,30.33,30.22,6,2,11,0.00
2013-3-10,66,48,30,36,29,26,90,55,24,30.30,30.17,9,2,16,0.00
2013-3-11,67,54,38,53,42,24,83,66,47,30.20,29.89,8,4,19,0.00
2013-3-12,66,58,45,61,51,32,97,80,50,29.92,29.70,16,4,29,0.78
2013-3-13,54,44,32,35,28,19,91,56,34,30.11,29.92,14,4,29,0.00
2013-3-14,52,39,29,23,19,17,65,46,26,30.22,30.09,12,4,17,0.00
2013-3-15,62,45,27,36,28,18,82,54,34,30.16,29.87,15,3,21,0.00
2013-3-16,76,59,42,55,45,35,86,63,38,29.87,29.61,13,3,21,0.00
2013-3-17,58,48,39,52,43,37,95,83,68,30.15,29.80,12,4,17,0.00
2013-3-18,40,38,37,39,37,36,97,96,93,30.17,29.82,7,3,17,0.29
2013-3-19,64,49,38,45,32,10,97,60,20,30.00,29.80,16,4,26,0.00
2013-3-20,55,45,37,28,16,10,66,33,21,30.07,29.77,11,3,15,0.00
2013-3-21,44,38,29,31,19,12,68,49,33,29.96,29.72,10,4,19,0.00
2013-3-22,49,35,22,25,16,13,72,49,26,30.07,29.95,8,2,14,0.00
2013-3-23,55,43,31,32,27,20,77,55,32,30.04,29.88,5,1,8,0.00
2013-3-24,39,37,34,38,34,29,95,89,76,29.90,29.54,16,2,18,0.84
2013-3-25,47,39,33,39,30,24,100,74,48,29.79,29.54,21,4,30,0.03
2013-3-26,48,41,32,30,28,25,80,60,47,30.09,29.79,11,4,14,0.00
2013-3-27,51,40,31,29,25,21,82,58,33,30.21,30.09,14,4,22,0.00
2013-3-28,55,42,30,29,25,23,80,56,31,30.27,30.14,9,3,17,0.00
2013-3-29,58,43,28,32,27,24,88,57,29,30.31,30.15,9,2,16,0.00
2013-3-30,64,50,36,41,32,27,82,54,28,30.22,30.05,8,1,10,0.00
2013-3-31,66,55,47,57,50,41,97,85,68,30.06,29.77,18,3,23,0.74
2013-4-1,71,58,47,53,46,36,97,70,35,29.94,29.78,14,2,22,0.05
2013-4-2,59,46,33,35,28,21,88,54,24,30.13,29.96,10,2,16,0.00
2013-4-3,58,46,33,30,22,17,68,41,22,30.28,30.12,10,2,12,0.00
2013-4-4,48,41,37,39,30,20,95,67,40,30.34,29.92,15,4,20,0.88
2013-4-5,63,48,37,47,40,36,97,79,43,30.00,29.86,7,2,13,0.06
2013-4-6,63,49,38,39,32,24,88,56,27,30.24,30.00,9,3,15,0.00
2013-4-7,72,57,37,44,40,34,88,56,34,30.24,30.07,13,3,18,0.00
2013-4-8,79,64,51,57,52,43,94,68,40,30.12,30.00,16,4,19,0.00
2013-4-9,84,69,54,59,55,52,95,66,36,30.13,30.00,11,3,18,0.00
2013-4-10,87,72,57,62,58,54,91,65,39,30.04,29.89,10,2,19,0.00
2013-4-11,80,69,59,65,60,56,93,75,53,29.93,29.73,12,3,19,0.00
2013-4-12,81,70,62,69,61,44,97,75,49,29.74,29.54,16,4,29,1.07
2013-4-13,72,61,51,47,42,37,79,51,31,29.97,29.73,9,2,14,0.00
2013-4-14,79,62,43,53,43,36,91,56,23,30.07,29.97,9,1,12,0.00
2013-4-15,70,61,55,58,56,52,95,82,62,30.17,29.99,8,2,17,0.12
2013-4-16,75,65,59,61,58,56,93,80,58,30.27,30.15,6,1,9,0.00
2013-4-17,77,67,56,65,60,55,97,81,64,30.18,30.07,7,1,11,0.00
2013-4-18,77,69,60,63,60,57,95,75,54,30.14,29.99,11,2,16,0.00
2013-4-19,78,68,63,70,65,61,96,88,71,29.99,29.65,17,4,24,0.67
2013-4-20,61,53,44,60,40,33,95,65,35,30.24,29.77,8,2,24,0.12
2013-4-21,59,49,39,41,37,34,92,67,45,30.47,30.24,14,2,19,0.00
2013-4-22,60,48,36,43,37,31,91,67,41,30.46,30.25,10,3,17,0.00
2013-4-23,64,53,46,52,47,44,93,80,56,30.27,30.09,9,1,14,0.04
2013-4-24,74,60,48,58,53,47,97,79,57,30.11,29.93,12,2,26,0.00
2013-4-25,65,57,47,57,44,39,88,64,39,30.24,29.97,6,1,13,0.00
2013-4-26,69,55,41,46,40,33,91,63,28,30.40,30.24,9,1,12,0.00
2013-4-27,71,60,51,53,48,43,88,65,41,30.34,30.23,4,1,14,0.00
2013-4-28,56,55,52,54,52,49,97,92,78,30.22,30.05,5,1,9,0.73
2013-4-29,68,60,54,63,58,53,98,93,81,30.05,29.94,3,0,11,0.59
2013-4-30,64,58,54,59,56,53,98,92,81,30.16,29.97,9,1,12,0.00
2013-5-1,61,57,55,58,56,54,96,93,89,30.30,30.14,11,3,16,0.01
2013-5-2,60,56,52,57,54,50,96,92,88,30.31,30.24,7,2,14,0.00
2013-5-3,65,55,48,55,49,44,97,81,53,30.25,30.15,11,3,19,0.00
2013-5-4,59,52,48,53,48,44,90,84,74,30.19,30.06,13,4,18,0.00
2013-5-5,57,52,47,54,50,45,95,90,83,30.08,29.96,13,4,18,0.03
2013-5-6,61,58,54,60,57,53,98,97,95,29.98,29.80,11,2,16,0.86
2013-5-7,67,59,53,60,55,51,98,87,61,29.91,29.82,6,1,13,0.03
2013-5-8,66,59,52,61,56,51,97,90,74,29.97,29.89,6,1,11,0.04
2013-5-9,77,63,50,62,57,49,100,83,57,30.02,29.94,5,0,16,0.01
2013-5-10,83,68,55,66,60,53,97,78,52,30.02,29.90,8,1,16,0.00
2013-5-11,80,70,64,66,63,60,94,79,56,29.91,29.73,10,2,17,0.07
2013-5-12,69,62,51,63,50,37,96,70,40,29.99,29.76,6,1,14,0.05
2013-5-13,65,53,42,44,38,33,87,61,32,30.16,30.00,6,1,13,0.00
2013-5-14,68,54,38,49,41,35,95,66,32,30.23,30.04,11,1,13,0.00
2013-5-15,84,66,51,66,55,45,82,70,47,30.04,29.85,6,1,15,0.00
2013-5-16,81,72,63,65,62,59,89,70,49,29.93,29.85,6,1,12,0.00
2013-5-17,83,71,62,66,62,58,94,75,49,30.04,29.93,3,0,7,0.00
2013-5-18,74,67,61,69,64,59,95,89,82,30.11,30.02,4,1,17,0.81
2013-5-19,74,67,62,69,65,61,98,95,82,30.11,30.01,9,1,12,0.83
2013-5-20,76,68,66,72,67,65,98,95,84,30.07,29.98,5,1,8,0.10
2013-5-21,81,72,66,74,69,66,98,91,74,30.01,29.89,6,1,12,0.00
2013-5-22,81,72,67,72,68,66,96,86,71,29.98,29.86,8,2,14,0.00
2013-5-23,76,70,65,71,67,63,97,90,73,29.92,29.76,5,1,8,0.91
2013-5-24,68,62,51,63,53,40,95,75,47,30.15,29.78,9,1,19,0.01
2013-5-25,70,56,43,53,42,34,90,64,31,30.24,30.11,4,0,15,0.00
2013-5-26,71,58,46,54,47,41,89,68,38,30.25,30.14,4,0,12,0.00
2013-5-27,77,63,50,60,54,48,96,74,46,30.25,30.12,7,1,13,0.00
2013-5-28,82,69,59,68,63,55,96,80,60,30.21,30.10,8,2,13,0.00
2013-5-29,85,72,62,68,64,60,95,78,53,30.20,30.12,6,1,14,0.00
2013-5-30,83,71,61,71,64,59,96,80,56,30.23,30.14,8,1,10,0.00
2013-5-31,85,73,64,71,66,62,96,80,54,30.18,30.06,6,1,15,0.00
2013-6-1,86,74,66,69,66,64,96,77,52,30.09,29.98,9,2,17,0.00
2013-6-2,83,74,67,71,67,64,95,81,64,30.00,29.87,10,2,15,0.35
2013-6-3,78,70,65,72,68,64,97,93,78,29.91,29.79,5,1,15,0.53
2013-6-4,74,67,63,68,64,62,97,91,79,30.07,29.91,5,1,12,0.00
2013-6-5,77,68,60,66,62,59,97,84,65,30.10,29.98,7,1,10,0.00
2013-6-6,72,69,64,71,66,59,97,90,74,29.99,29.77,6,2,14,0.32
2013-6-7,70,68,67,69,68,66,98,97,96,29.80,29.52,9,1,16,1.64
2013-6-8,77,70,63,70,67,62,98,90,68,30.06,29.78,5,0,15,0.07
2013-6-9,81,69,64,73,67,63,98,93,76,30.12,30.02,3,0,13,0.08
2013-6-10,79,72,70,76,71,69,98,96,88,30.05,29.83,9,2,23,0.83
2013-6-11,81,73,67,70,68,66,98,85,63,29.91,29.85,8,1,15,0.01
2013-6-12,86,74,63,76,70,62,98,87,63,29.93,29.82,5,1,13,0.00
2013-6-13,91,77,66,76,71,65,97,84,56,29.82,29.55,9,1,24,0.27
2013-6-14,77,67,59,66,60,57,97,80,53,29.98,29.69,7,1,15,0.00
2013-6-15,81,68,58,66,62,57,97,81,54,30.09,29.98,3,0,8,0.00
2013-6-16,84,73,64,72,66,61,93,81,62,30.07,29.96,8,2,17,0.00
2013-6-17,82,75,70,75,70,66,91,84,75,29.98,29.88,7,1,11,0.00
2013-6-18,80,72,68,74,70,67,96,91,79,29.93,29.72,6,1,13,0.29
2013-6-19,77,70,63,70,66,62,98,89,74,30.09,29.84,6,1,10,0.01
2013-6-20,80,70,63,66,64,60,97,82,56,30.21,30.09,6,1,10,0.00
2013-6-21,81,67,57,64,59,54,94,77,46,30.24,30.16,8,1,11,0.00
2013-6-22,80,71,64,73,68,62,95,90,72,30.18,30.08,7,1,9,0.05
2013-6-23,84,73,67,75,70,66,98,90,71,30.17,30.08,3,0,7,0.00
2013-6-24,83,74,69,76,71,68,97,90,74,30.16,30.04,5,1,15,0.02
2013-6-25,87,75,68,77,71,67,97,87,68,30.08,29.96,6,1,11,0.00
2013-6-26,87,74,67,76,70,66,97,88,63,29.98,29.84,7,1,11,0.88
2013-6-27,84,75,67,77,72,66,98,90,70,29.89,29.67,10,2,13,0.00
2013-6-28,88,76,71,77,72,69,97,88,61,29.70,29.52,10,2,22,0.56
2013-6-29,82,74,68,75,71,68,98,91,73,29.67,29.55,8,1,12,0.14
2013-6-30,82,73,69,74,71,68,97,92,72,29.81,29.67,5,1,10,0.41
2013-7-1,79,73,69,74,71,68,98,93,83,29.95,29.80,6,1,14,0.36
2013-7-2,75,72,71,73,71,70,97,96,94,30.14,29.95,7,2,12,0.46
2013-7-3,81,74,72,76,73,70,98,95,83,30.19,30.10,7,1,11,0.61
2013-7-4,80,75,71,76,73,70,98,94,82,30.23,30.13,9,2,13,0.22
2013-7-5,84,76,71,76,73,70,98,89,74,30.23,30.12,6,1,10,0.00
2013-7-6,84,76,71,75,72,70,97,89,72,30.21,30.07,7,1,8,0.00
2013-7-7,85,76,69,78,72,67,97,89,75,30.14,30.02,7,1,16,0.74
2013-7-8,84,74,69,76,72,68,98,93,68,30.13,30.05,3,0,7,1.29
2013-7-9,85,76,71,78,74,70,98,94,80,30.11,30.01,7,1,12,0.30
2013-7-10,85,76,71,78,73,69,97,91,77,30.06,29.89,9,2,22,0.36
2013-7-11,75,74,72,75,73,71,98,97,95,29.93,29.84,6,1,12,0.76
2013-7-12,73,70,68,71,69,67,98,96,90,29.99,29.83,8,1,12,0.05
2013-7-13,75,71,68,74,71,67,98,97,96,30.14,29.98,8,1,8,0.19
2013-7-14,84,76,71,76,72,70,97,89,71,30.27,30.14,5,1,11,0.04
2013-7-15,83,75,68,75,72,67,98,89,68,30.29,30.21,3,0,7,0.00
2013-7-16,89,77,69,78,73,68,98,88,64,30.24,30.14,0,0,4,0.00
2013-7-17,89,80,73,79,75,71,96,86,64,30.18,30.07,3,0,8,0.00
2013-7-18,90,79,72,81,75,70,97,88,67,30.10,29.98,2,0,7,0.00
2013-7-19,88,79,72,78,75,71,97,88,72,30.05,29.93,10,1,12,0.00
2013-7-20,86,78,73,79,74,71,94,89,75,29.97,29.87,7,1,14,0.00
2013-7-21,86,76,72,79,73,71,96,90,72,29.94,29.86,6,1,11,0.05
2013-7-22,83,76,70,77,73,70,98,90,75,29.91,29.78,6,1,11,0.00
2013-7-23,86,77,72,75,72,71,95,85,67,29.79,29.68,6,1,11,0.00
2013-7-24,89,77,70,75,71,68,96,83,62,29.80,29.69,3,0,8,0.00
2013-7-25,77,71,65,71,67,63,97,88,76,30.00,29.80,12,1,15,0.12
2013-7-26,78,70,63,70,66,61,97,86,67,30.08,29.99,3,0,6,0.00
2013-7-27,80,70,65,73,68,64,98,92,74,30.02,29.89,7,1,8,1.02
2013-7-28,84,73,68,74,71,67,98,92,72,29.95,29.88,7,1,10,0.01
2013-7-29,80,71,66,70,67,62,97,86,56,30.12,29.95,8,0,10,0.13
2013-7-30,81,70,61,72,65,59,95,86,62,30.19,30.11,5,0,7,0.00
2013-7-31,80,73,69,74,70,67,97,90,77,30.11,29.95,2,0,18,0.40
2013-8-1,80,74,70,75,71,66,98,92,82,29.97,29.82,6,1,10,0.12
2013-8-2,82,73,67,73,69,66,98,89,67,29.99,29.87,4,0,7,0.28
2013-8-3,84,73,68,78,72,67,98,94,77,29.98,29.87,5,0,11,1.60
2013-8-4,81,72,67,71,68,63,98,87,59,29.99,29.86,9,1,12,0.00
2013-8-5,77,70,63,70,66,62,97,87,68,30.06,29.96,7,0,8,0.00
2013-8-6,77,71,64,72,67,62,98,89,78,30.02,29.96,8,1,16,0.40
2013-8-7,81,73,67,74,70,65,97,89,74,30.06,29.99,9,1,12,0.00
2013-8-8,81,75,70,75,72,69,97,90,77,30.03,29.96,4,0,9,0.00
2013-8-9,88,77,72,79,74,70,98,90,70,30.00,29.93,9,1,16,0.02
2013-8-10,86,75,72,79,73,71,98,94,78,30.04,29.97,5,1,16,2.20
2013-8-11,84,74,71,77,73,70,99,94,76,30.07,29.98,5,0,9,0.58
2013-8-12,84,76,70,77,73,70,99,91,72,30.02,29.90,2,0,10,0.20
2013-8-13,82,75,70,77,73,69,98,94,80,29.94,29.74,7,1,9,0.13
2013-8-14,73,69,61,71,66,59,97,89,74,30.05,29.79,5,0,13,0.00
2013-8-15,73,64,58,63,59,56,95,85,62,30.14,30.05,5,1,10,0.00
2013-8-16,69,63,57,64,60,56,98,90,77,30.16,30.07,5,0,7,0.00
2013-8-17,68,64,60,67,63,59,98,96,93,30.16,30.10,6,1,11,0.46
2013-8-18,73,69,66,70,67,64,99,95,86,30.17,30.08,6,0,9,0.11
2013-8-19,73,68,64,71,67,64,99,96,93,30.16,30.06,4,0,8,0.42
2013-8-20,78,71,64,74,69,63,99,93,82,30.16,30.07,2,0,4,0.00
2013-8-21,81,72,70,77,71,69,98,96,85,30.18,30.06,5,0,10,2.29
2013-8-22,82,74,69,75,72,69,99,92,74,30.10,29.95,4,0,8,0.00
2013-8-23,82,73,67,76,70,64,98,90,74,30.05,29.89,8,1,13,0.00
2013-8-24,79,69,62,65,63,61,96,82,57,30.27,30.05,7,2,14,0.00
2013-8-25,75,66,59,65,61,58,98,85,56,30.37,30.26,5,1,10,0.00
2013-8-26,77,65,54,65,60,53,98,84,57,30.30,30.08,0,0,3,0.00
2013-8-27,83,72,62,75,68,60,95,87,69,30.09,29.93,7,1,10,0.00
2013-8-28,78,74,70,76,72,68,96,93,89,29.95,29.82,7,0,11,0.00
2013-8-29,82,76,71,74,72,69,96,87,73,29.97,29.80,8,1,15,0.00
2013-8-30,80,72,66,72,69,66,98,88,67,30.03,29.90,5,0,5,0.00
2013-8-31,84,74,67,75,70,65,98,89,72,29.92,29.82,6,1,13,0.30
2013-9-1,85,74,69,78,72,68,98,94,76,29.86,29.74,6,1,20,0.67
2013-9-2,81,74,68,77,72,67,99,94,78,29.85,29.76,5,0,9,0.00
2013-9-3,81,74,70,77,72,69,98,94,83,29.91,29.75,3,0,7,0.14
2013-9-4,78,70,64,72,67,62,96,89,73,30.05,29.91,5,0,9,0.00
2013-9-5,80,69,63,68,64,60,98,85,53,30.07,30.00,0,0,2,0.00
2013-9-6,76,67,61,65,62,57,94,82,63,30.16,30.06,6,1,10,0.00
2013-9-7,76,66,57,68,62,56,98,88,72,30.11,29.95,5,0,8,0.00
2013-9-8,81,70,62,70,65,61,98,85,62,29.95,29.88,4,0,9,0.00
2013-9-9,81,72,65,73,68,64,98,88,65,30.11,29.96,3,0,7,0.00
2013-9-10,84,74,66,74,70,65,98,88,65,30.20,30.10,4,0,9,0.00
2013-9-11,84,74,66,74,70,64,97,86,70,30.16,30.02,6,1,15,0.00
2013-9-12,84,74,67,76,70,66,96,88,72,30.02,29.77,5,1,10,0.00
2013-9-13,79,71,63,68,63,55,91,77,52,29.87,29.72,5,0,14,0.00
2013-9-14,70,62,56,59,54,50,92,75,56,30.11,29.87,7,1,15,0.00
2013-9-15,75,62,50,64,57,49,98,86,64,30.21,30.09,4,0,7,0.00
2013-9-16,79,70,62,69,64,60,98,84,62,30.16,30.02,6,1,14,0.00
2013-9-17,72,64,56,61,56,53,93,77,54,30.30,30.16,7,1,13,0.00
2013-9-18,67,57,49,56,52,46,97,82,50,30.29,30.15,4,0,8,0.00
2013-9-19,73,63,54,66,59,52,96,87,68,30.17,30.05,4,0,5,0.00
2013-9-20,67,65,62,66,64,61,98,96,93,30.06,29.93,3,0,7,0.56
2013-9-21,73,67,63,71,66,62,98,96,90,29.93,29.69,6,1,11,0.76
2013-9-22,72,64,58,64,61,56,98,90,71,29.87,29.68,8,1,17,0.13
2013-9-23,68,59,53,59,55,51,96,85,68,30.04,29.87,5,1,10,0.00
2013-9-24,70,61,54,62,57,52,97,88,70,30.07,29.92,3,0,7,0.00
2013-9-25,68,60,52,64,58,51,98,93,81,29.93,29.85,3,0,6,0.00
2013-9-26,72,63,56,62,59,55,97,86,59,30.01,29.86,5,0,11,0.00
2013-9-27,70,60,52,60,55,51,98,86,63,30.16,30.01,5,1,12,0.00
2013-9-28,67,58,51,58,54,50,98,87,68,30.24,30.15,8,1,12,0.00
2013-9-29,68,58,52,58,54,51,98,87,62,30.16,30.01,5,1,9,0.00
2013-9-30,70,59,50,61,55,49,98,87,64,30.08,29.97,2,0,7,0.00
2013-10-1,75,62,52,66,59,51,98,88,68,30.09,29.99,2,0,5,0.00
2013-10-2,78,65,56,65,60,55,98,86,58,30.11,30.01,3,0,9,0.00
2013-10-3,78,67,58,68,62,57,98,87,62,30.10,30.02,3,0,7,0.00
2013-10-4,81,69,60,69,64,59,97,86,64,30.10,30.01,4,1,6,0.00
2013-10-5,82,70,61,70,65,60,98,86,61,30.08,29.99,3,0,7,0.00
2013-10-6,79,70,61,70,66,60,98,88,68,30.02,29.89,7,1,12,0.00
2013-10-7,72,68,61,70,67,57,98,95,86,29.97,29.79,10,2,20,1.56
2013-10-8,62,58,55,56,51,48,88,77,65,30.19,29.97,13,3,19,0.00
2013-10-9,65,57,54,57,52,49,94,84,74,30.18,30.09,11,3,19,0.08
2013-10-10,59,56,52,59,55,51,98,97,95,30.08,29.92,9,2,19,1.00
2013-10-11,66,61,58,63,60,57,98,95,89,29.94,29.89,7,1,12,0.03
2013-10-12,66,63,60,65,62,59,97,96,95,30.06,29.93,6,1,10,0.01
2013-10-13,64,62,60,63,61,59,98,97,95,30.19,30.05,8,2,14,0.01
2013-10-14,62,60,56,61,59,55,98,97,93,30.22,30.16,8,2,14,0.01
2013-10-15,69,59,52,61,56,52,98,89,71,30.18,30.04,9,1,10,0.00
2013-10-16,69,63,61,63,61,59,97,91,76,30.05,29.92,4,0,6,0.01
2013-10-17,69,64,59,65,62,59,98,93,78,29.93,29.79,7,1,12,0.01
2013-10-18,66,59,52,64,54,48,97,82,56,30.02,29.84,7,1,14,0.00
2013-10-19,64,58,53,63,57,52,98,96,93,29.95,29.79,3,0,7,0.00
2013-10-20,60,52,44,56,45,41,97,80,52,30.10,29.88,7,1,12,0.01
2013-10-21,64,50,38,52,45,37,98,85,56,30.14,29.98,6,0,7,0.00
2013-10-22,66,58,51,59,54,49,95,88,65,29.98,29.77,5,1,9,0.00
2013-10-23,62,55,45,57,48,36,97,81,52,29.97,29.66,9,1,16,0.00
2013-10-24,55,45,36,40,36,33,90,71,50,30.16,29.97,4,1,12,0.00
2013-10-25,52,44,35,37,33,30,90,69,43,30.35,30.16,8,1,19,0.03
2013-10-26,56,42,30,39,32,28,94,71,42,30.34,30.04,10,1,15,0.30
2013-10-27,63,52,44,46,41,38,89,68,45,30.10,30.02,7,1,9,0.00
2013-10-28,67,54,43,54,48,41,97,82,58,30.23,30.09,4,0,6,0.00
2013-10-29,68,58,52,57,53,50,96,85,63,30.31,30.22,3,0,6,0.00
2013-10-30,71,59,51,60,55,50,98,88,66,30.26,30.12,5,1,11,0.00
2013-10-31,71,62,55,62,58,53,97,86,69,30.16,29.87,11,2,19,0.00
2013-11-1,69,66,60,66,64,59,97,93,84,29.86,29.61,13,3,24,0.32
2013-11-2,66,58,52,58,51,38,97,79,50,29.92,29.66,7,1,19,0.01
2013-11-3,60,50,41,41,39,37,87,68,45,30.35,29.92,8,1,18,0.00
2013-11-4,52,43,36,37,34,31,91,72,48,30.55,30.35,5,1,14,0.00
2013-11-5,57,46,36,49,40,31,87,79,67,30.55,30.42,7,2,14,0.00
2013-11-6,68,55,44,56,49,41,95,82,62,30.42,30.09,5,1,8,0.00
2013-11-7,66,56,43,59,50,34,97,80,56,30.09,29.90,11,2,15,0.00
2013-11-8,54,43,33,34,30,26,89,63,34,30.31,30.08,8,1,18,0.00
2013-11-9,33,31,30,30,29,28,91,89,86,30.34,30.30,1,0,3,0.00
2013-11-10,58,52,47,34,32,27,56,47,36,30.22,30.12,10,2,13,0.00
2013-11-11,58,45,32,34,31,28,88,61,34,30.32,30.12,6,1,11,0.00
2013-11-12,57,43,33,39,33,20,90,71,47,30.42,30.02,10,3,22,0.03
2013-11-13,43,33,26,23,20,17,83,62,40,30.52,30.41,10,2,14,0.00
2013-11-14,56,38,25,29,25,22,89,63,27,30.45,30.31,10,2,15,0.00
2013-11-15,67,32,29,47,4,-100,92,62,47,30.34,30.20,5,1,12,0.02
2013-11-16,58,53,48,56,52,47,98,95,91,30.25,30.19,5,0,8,0.06
2013-11-17,65,59,53,63,57,53,99,95,84,30.20,29.85,8,1,20,0.02
2013-11-18,70,62,50,65,51,30,98,71,41,29.94,29.77,12,2,19,0.09
2013-11-19,53,45,36,34,31,28,81,59,40,30.29,29.94,10,2,14,0.00
2013-11-20,50,42,35,35,31,28,88,67,51,30.44,30.30,11,2,13,0.00
2013-11-21,55,46,38,45,40,35,90,79,67,30.50,30.38,8,2,11,0.00
2013-11-22,66,56,46,59,51,43,93,84,75,30.37,30.05,6,2,14,0.00
2013-11-23,60,53,41,58,42,22,96,68,37,30.15,30.00,10,2,15,0.00
2013-11-24,40,30,24,23,11,-100,69,46,28,30.53,30.15,13,4,20,0.01
2013-11-25,40,30,19,20,14,8,83,53,27,30.58,30.37,6,1,9,0.00
2013-11-26,60,40,33,59,35,17,98,84,46,30.36,29.59,13,3,21,1.28
2013-11-27,45,38,28,44,34,19,98,88,68,30.14,29.49,11,3,21,0.65
2013-11-28,40,30,23,26,21,17,92,72,47,30.47,30.14,5,1,10,0.00
2013-11-29,47,33,24,29,25,22,93,75,45,30.64,30.46,9,2,15,0.00
2013-11-30,44,33,25,33,27,22,91,78,61,30.64,30.37,6,1,9,0.00
2013-12-1,54,37,25,34,29,23,95,77,45,30.36,30.02,5,0,9,0.00
2013-12-2,57,42,30,40,35,28,96,77,50,30.01,29.81,3,0,8,0.00
2013-12-3,55,45,32,48,41,31,96,86,68,29.97,29.85,6,1,9,0.01
2013-12-4,60,53,48,57,52,47,98,95,87,30.06,29.95,4,0,8,0.04
2013-12-5,66,60,54,64,59,53,100,97,91,30.08,29.99,10,2,16,0.07
2013-12-6,74,67,62,66,63,61,99,89,71,30.02,29.91,12,4,27,0.00
2013-12-7,66,47,41,64,43,34,96,87,75,30.43,29.94,11,3,19,0.91
2013-12-8,41,34,32,34,31,28,96,88,70,30.45,30.27,7,2,15,0.17
2013-12-9,44,38,33,43,38,32,98,98,97,30.28,30.04,7,1,10,0.43
2013-12-10,45,41,28,44,39,27,98,92,71,30.30,29.91,12,2,13,0.50
2013-12-11,45,33,24,30,26,23,95,78,48,30.44,30.27,5,2,11,0.00
2013-12-12,40,33,25,27,23,18,91,67,40,30.41,30.27,7,2,18,0.00
2013-12-13,48,34,23,31,23,19,88,68,37,30.38,30.25,9,2,11,0.00
2013-12-14,45,39,35,41,35,30,97,87,58,30.29,29.76,11,2,18,0.85
2013-12-15,50,40,33,43,35,28,98,83,62,30.05,29.70,9,3,15,0.02
2013-12-16,52,39,29,35,31,27,94,76,49,30.15,30.04,7,2,12,0.00
2013-12-17,60,44,31,41,35,29,96,75,44,30.09,29.85,13,2,16,0.00
2013-12-18,45,36,28,37,25,19,91,64,37,30.27,30.02,10,2,18,0.00
2013-12-19,59,42,26,31,27,23,89,60,28,30.30,30.19,11,2,18,0.00
2013-12-20,64,52,42,53,44,32,90,74,58,30.21,30.08,9,3,16,0.00
2013-12-21,72,59,46,64,55,45,97,87,69,30.11,29.98,13,3,22,0.00
2013-12-22,73,66,61,69,64,60,98,91,80,30.04,29.95,15,4,23,0.26
2013-12-23,64,58,44,64,56,36,99,94,75,30.14,29.96,12,3,19,1.16
2013-12-24,44,38,28,36,27,15,78,66,51,30.44,30.12,10,4,15,0.00
2013-12-25,36,28,22,19,15,12,83,61,38,30.54,30.39,9,1,11,0.00
2013-12-26,48,33,22,28,24,18,89,70,41,30.39,30.24,6,1,11,0.00
2013-12-27,49,34,24,28,24,20,91,69,34,30.46,30.36,3,0,6,0.00
2013-12-28,56,40,25,41,29,23,94,71,33,30.40,30.14,6,1,9,0.01
2013-12-29,52,46,41,49,44,39,98,94,89,30.12,29.69,10,2,16,1.86
2013-12-30,52,43,35,43,39,34,98,85,69,30.12,29.90,5,2,15,0.00
2013-12-31,47,40,31,37,30,24,96,72,44,30.34,30.10,11,2,17,0.01
2014-1-1,48,37,29,30,27,24,91,71,39,30.41,30.13,7,1,9,0.00
2014-1-2,48,40,33,42,37,30,97,88,73,30.13,29.58,8,1,13,0.42